Zachary, Louisiana
Current Conditions -  °F | °C
As of 5:53 AM on Monday 24 Nov 2014 (Local Time) from KBTR Reporting Station
Clear Clear  
Wind Chill: 16°   Ceiling: Unl
Heat Index: 16°   Visibility: 8mi
Dew Point: 14°   Wind: 6mph
Humidity: 93%   Direction: 270°W
Pressure: 29.81"   Gusts: NA
Location:  30.65°N, 91.16°W
Report Text: KBTR 241153Z AUTO 27005KT 8SM CLR 16/14 A2981 RMK AO2 SLP094 70023 T01560144 10194 20144 53026 TSNO $
Loading
Personal Weather Stations






























Interactive Weather Map New forecast layout! Learn more

10-Day Weather Forecast

Advertisements
Track Severe Weather on mobile